AirNav   Everest Fuels
 
 347 users online  

6OI5 Mitchell Airport
Plain City, Ohio, USA

GOING TO PLAIN CITY?


FAA INFORMATION EFFECTIVE 20 JUNE 2019

Location

FAA Identifier: 6OI5
Lat/Long: 40-08-14.2220N / 083-13-04.6930W
40-08.237033N / 083-13.078217W
40.1372839 / -83.2179703
(estimated)
Elevation: 950 ft. / 290 m (estimated)
Variation: 05W (1985)
From city: 4 miles NE of PLAIN CITY, OH
Time zone: UTC -4 (UTC -5 during Standard Time)
Zip code: 43064

Airport Operations

Airport use: Private use, PERSONAL USE.
Activation date: 10/1981
Control tower: no
ARTCC: INDIANAPOLIS CENTER
FSS: DAYTON FLIGHT SERVICE STATION
Attendance: UNATNDD
Wind indicator: yes
Segmented circle: no

Airport Communications

WX ASOS at OSU (7 nm SE): PHONE 614-451-2465
WX AWOS-3 at MRT (8 nm NW): 119.275 (937-644-2967)
WX AWOS-3 at DLZ (10 nm NE): 119.025 (740-203-1878)
WX AWOS-3 at TZR (15 nm S): 135.925 (614-878-1722)
WX AWOS-3PT at UYF (17 nm SW): 120.85 (740-852-2844)
WX ASOS at CMH (17 nm SE): 124.6 (614-338-4083)

Nearby radio navigation aids

VOR radial/distance  VOR name  Freq  Var
APEr274/28.9APPLETON VORTAC116.7006W
BUDr199/(29.6)BUCKEYE VOR109.8005W
SGHr062/34.0SPRINGFIELD VOR/DME113.2004W
XUBr348/(38.3)YELLOW BUD VOR112.5005W
RODr108/38.9ROSEWOOD VORTAC117.5005W

 
NDB name  Hdg/Dist  Freq  Var  ID
FULER352/3.951505WOS --- ...
CLARK COUNTY062/30.334104WCCJ -.-. -.-. .---
COURT HOUSE020/33.241406WCSS -.-. ... ...

Airport Services

Runway Information

Runway 5/23

Dimensions: 2400 x 80 ft. / 732 x 24 m
Surface: turf
RUNWAY 5  RUNWAY 23
Traffic pattern: leftleft

Airport Ownership and Management from official FAA records

Ownership: Privately-owned
Owner: JAMES C. MITCHELL
9267 MITCHELL-DEWITTE RD
PLAIN CITY, OH 43064
Phone (614) 361-2141

Airport Operational Statistics

Aircraft based on the field: 1
Single engine airplanes: 1
    

Additional Remarks

FOR CD CTC COLUMBUS APCH AT 614-338-8537

Instrument Procedures

There are no published instrument procedures at 6OI5.

Some nearby airports with instrument procedures:

KOSU - Ohio State University Airport (7 nm SE)
KMRT - Union County Airport (8 nm NW)
KDLZ - Delaware Municipal Airport - Jim Moore Field (10 nm NE)
KTZR - Bolton Field Airport (15 nm S)
KUYF - Madison County Airport (17 nm SW)
KCMH - John Glenn Columbus International Airport (17 nm SE)
 
Loc | Ops | Rwys | IFR | FBO | Links
Com | Nav | Svcs | Stats | Notes
Area around 6OI5 (Mitchell Airport)
 
Road maps at: MapQuest Bing Google
 
Aerial photo
No photo
 
Sectional chart

 
Airport distance calculator
Flying to Mitchell Airport? Find the distance to fly.

From to 6OI5

Sunrise and sunset
Times for 26-Jun-2019
 Local
(UTC-4)
 Zulu
(UTC)
Morning civil twilight05:3309:33
Sunrise06:0610:06
Sunset21:0501:05
Evening civil twilight21:3801:38

Current date and time
Zulu (UTC)  26-Jun-2019 07:05:15
Local (UTC-4)  26-Jun-2019 03:05:15
 
METAR
KOSU 
7nm SE 
260653Z AUTO 19006KT 10SM CLR 20/16 A3004 RMK AO2 SLP167 T02000161
KMRT 
8nm NW 
260656Z AUTO 19006KT 10SM CLR 19/16 A3005 RMK AO2 T01870159
KDLZ 
10nm NE 
260656Z AUTO 20004KT 10SM CLR 20/16 A3004 RMK AO2
KTZR 
16nm S 
260700Z AUTO 20009G14KT 10SM CLR 19/17 A3006 RMK AO2 T01940165
KUYF 
17nm SW 
260655Z AUTO 20007KT 10SM CLR 18/17 A3005 RMK AO2
KCMH 
17nm SE 
260651Z 18003KT 10SM CLR 21/16 A3005 RMK AO2 SLP169 T02060156
TAF
KCMH 
17nm SE 
260540Z 2606/2706 21004KT P6SM SKC FM261000 21005KT P6SM FEW150 FM261400 24006KT P6SM FEW150 FM261900 26009KT P6SM FEW050 FM262200 26009KT P6SM SCT060 FM270300 21004KT P6SM FEW150
NOTAMs
Click for the latest NOTAMs
NOTAMs are issued by the DoD/FAA and will open in a separate window not controlled by AirNav.

 

 
 

Would you like to see your business listed on this page?

 If your business provides an interesting product or service to pilots, flight crews, aircraft, or users of the Mitchell Airport, you should consider listing it here.  To start the listing process, click on the button below
 
Add a business
 

Other Pages about Mitchell Airport

Update a link
 
Copyright © AirNav, LLC. All rights reserved. Privacy Policy  Contact